W-sky — A8UX6 — position and weather

sailwx.info

Track history (hours):
 
Tides and Currents Weather Stations Pressure Air Temp Water Temp Dewpoint Dewpoint Depression Visibility Wind Speed Wind Dir Waves Ship Positions

W-sky

Last reported at 2017-Nov-25 05:49 UTC. Time now 2018-Feb-22 05:22 UTC.
Position S 27°39' E 153°53'.
Warning: this ship's position is months out of date.

Length 229 m; draft 14.7 m.

Type: Cargo ship. MMSI: 636014568.

Date/timePositionNaut miles runAvg speedWind from/ knotsBaromVisibWave heightAir tempDewpointWater temp
2017-Nov-25 05:49S 27°39' E 153°53'310.6
2017-Nov-25 05:30S 27°43' E 153°53'510.5
2017-Nov-25 05:00S 27°48' E 153°52'810.6
2017-Nov-25 04:12S 27°56' E 153°52'210.6
2017-Nov-25 03:59S 27°59' E 153°52'510.6
2017-Nov-25 03:30S 28°04' E 153°52'510.5
2017-Nov-25 03:00S 28°09' E 153°52'510.2
2017-Nov-25 02:29S 28°14' E 153°52'14 9.9
2017-Nov-25 01:02S 28°29' E 153°52'0 9.9
2017-Nov-25 00:59S 28°29' E 153°52'256 8.6
2017-Nov-23 19:15S 32°36' E 152°35'2 9.0
2017-Nov-23 19:00S 32°38' E 152°33'4 8.9
2017-Nov-23 18:30S 32°40' E 152°29'4 8.9
2017-Nov-23 18:00S 32°43' E 152°25'5 9.1
2017-Nov-23 17:30S 32°46' E 152°20'510.0
2017-Nov-23 17:00S 32°49' E 152°15'5 9.7
2017-Nov-23 16:30S 32°51' E 152°11'510.3
2017-Nov-23 16:00S 32°53' E 152°05'510.3
2017-Nov-23 15:30S 32°55' E 151°59'510.2
2017-Nov-23 15:00S 32°57' E 151°53'4 7.7
2017-Nov-23 14:30S 32°55' E 151°49'2 4.3
2017-Nov-23 14:00S 32°55' E 151°47'2 0.2
2017-Nov-23 03:28S 32°53' E 151°46'0 0.0
2017-Nov-22 23:28S 32°53' E 151°46'0 0.0
2017-Nov-22 20:40S 32°53' E 151°46'0 0.0
2017-Nov-22 20:28S 32°53' E 151°46'0 0.1
2017-Nov-22 19:58S 32°53' E 151°46'  
Track history (hours):
 
Tides and Currents Weather Stations Pressure Air Temp Water Temp Dewpoint Dewpoint Depression Visibility Wind Speed Wind Dir Waves Ship Positions

W-sky

Last reported at 2017-Nov-25 05:49 UTC. Time now 2018-Feb-22 05:22 UTC.
Position S 27°39' E 153°53'.
Warning: this ship's position is months out of date.

Length 229 m; draft 14.7 m.

Type: Cargo ship. MMSI: 636014568.

Date/timePositionNaut miles runAvg speedWind from/ knotsBaromVisibWave heightAir tempDewpointWater temp
2017-Nov-25 05:49S 27°39' E 153°53'310.6
2017-Nov-25 05:30S 27°43' E 153°53'510.5
2017-Nov-25 05:00S 27°48' E 153°52'810.6
2017-Nov-25 04:12S 27°56' E 153°52'210.6
2017-Nov-25 03:59S 27°59' E 153°52'510.6
2017-Nov-25 03:30S 28°04' E 153°52'510.5
2017-Nov-25 03:00S 28°09' E 153°52'510.2
2017-Nov-25 02:29S 28°14' E 153°52'14 9.9
2017-Nov-25 01:02S 28°29' E 153°52'0 9.9
2017-Nov-25 00:59S 28°29' E 153°52'256 8.6
2017-Nov-23 19:15S 32°36' E 152°35'2 9.0
2017-Nov-23 19:00S 32°38' E 152°33'4 8.9
2017-Nov-23 18:30S 32°40' E 152°29'4 8.9
2017-Nov-23 18:00S 32°43' E 152°25'5 9.1
2017-Nov-23 17:30S 32°46' E 152°20'510.0
2017-Nov-23 17:00S 32°49' E 152°15'5 9.7
2017-Nov-23 16:30S 32°51' E 152°11'510.3
2017-Nov-23 16:00S 32°53' E 152°05'510.3
2017-Nov-23 15:30S 32°55' E 151°59'510.2
2017-Nov-23 15:00S 32°57' E 151°53'4 7.7
2017-Nov-23 14:30S 32°55' E 151°49'2 4.3
2017-Nov-23 14:00S 32°55' E 151°47'2 0.2
2017-Nov-23 03:28S 32°53' E 151°46'0 0.0
2017-Nov-22 23:28S 32°53' E 151°46'0 0.0
2017-Nov-22 20:40S 32°53' E 151°46'0 0.0
2017-Nov-22 20:28S 32°53' E 151°46'0 0.1
2017-Nov-22 19:58S 32°53' E 151°46'  

Dump ship's entire track history